Time;durP1;ratioP1;P1;durP2;ratioP2;P2;SDS_P1;SDS_P2;PMS_P1;PMS_P2;Temp;Humidity;BMP_temperature;BMP_pressure;BME280_temperature;BME280_humidity;BME280_pressure;Samples;Min_cycle;Max_cycle;Signal;HPM_P1;HPM_P2
2023/03/11 00:02:13;;;;;;;9.13;0.70;;;0.80;99.90;;;;;;4980665;28;20474;-61
2023/03/11 00:04:38;;;;;;;8.70;0.60;;;1.00;99.90;;;;;;5011073;28;20460;-61
2023/03/11 00:07:08;;;;;;;7.97;0.70;;;0.90;99.90;;;;;;4986867;28;20404;-62
2023/03/11 00:09:35;;;;;;;8.52;0.50;;;0.90;99.90;;;;;;4977888;28;20848;-63
2023/03/11 00:12:01;;;;;;;6.50;0.40;;;0.80;51.30;;;;;;4993494;28;20048;-62
2023/03/11 00:14:27;;;;;;;4.53;0.47;;;0.60;59.40;;;;;;5010166;28;20474;-62
2023/03/11 00:16:52;;;;;;;6.82;0.30;;;0.70;1.00;;;;;;4978817;28;20230;-62
2023/03/11 00:19:18;;;;;;;3.80;0.30;;;0.70;1.00;;;;;;4995731;28;20592;-63
2023/03/11 00:21:44;;;;;;;6.03;0.30;;;0.60;1.00;;;;;;5011037;28;20516;-64
2023/03/11 00:24:09;;;;;;;3.72;0.30;;;0.60;1.00;;;;;;4991933;28;20158;-62
2023/03/11 00:26:35;;;;;;;3.72;0.30;;;0.70;99.90;;;;;;4980758;28;20046;-62
2023/03/11 00:29:02;;;;;;;4.25;0.40;;;0.80;99.90;;;;;;4963741;28;20556;-60
2023/03/11 00:31:28;;;;;;;5.78;0.30;;;0.80;99.90;;;;;;5009176;28;20056;-62
2023/03/11 00:33:56;;;;;;;7.97;0.73;;;0.80;99.90;;;;;;4995410;28;20058;-61
2023/03/11 00:36:23;;;;;;;5.93;0.30;;;0.90;99.90;;;;;;4998422;28;20490;-61
2023/03/11 00:38:50;;;;;;;7.10;0.40;;;0.80;99.90;;;;;;5009507;28;20050;-63
2023/03/11 00:41:16;;;;;;;4.38;0.30;;;0.90;99.90;;;;;;4992874;28;20045;-62
2023/03/11 00:43:42;;;;;;;4.38;0.30;;;0.90;99.90;;;;;;4961856;28;20042;-61
2023/03/11 00:46:08;;;;;;;4.38;0.20;;;0.80;99.90;;;;;;4977237;28;20042;-62
2023/03/11 00:48:34;;;;;;;6.43;0.50;;;0.90;99.90;;;;;;4981329;28;20126;-60
2023/03/11 00:50:59;;;;;;;1.27;0.20;;;0.90;99.90;;;;;;4995998;28;20038;-61
2023/03/11 00:53:25;;;;;;;6.03;0.30;;;1.00;99.90;;;;;;4976800;28;20081;-63
2023/03/11 00:55:51;;;;;;;7.25;0.50;;;0.90;99.90;;;;;;4999690;28;20397;-62
2023/03/11 00:58:17;;;;;;;4.65;0.30;;;0.90;99.90;;;;;;4981238;28;20411;-61
2023/03/11 01:00:42;;;;;;;5.25;0.20;;;0.90;99.90;;;;;;4976140;28;20042;-62
2023/03/11 01:03:08;;;;;;;2.35;0.30;;;1.00;99.90;;;;;;4980118;28;20255;-62
2023/03/11 01:05:34;;;;;;;6.05;0.30;;;1.20;99.90;;;;;;4978763;28;20046;-62
2023/03/11 01:08:01;;;;;;;5.10;0.43;;;1.20;99.90;;;;;;4977937;28;20076;-62
2023/03/11 01:10:28;;;;;;;5.07;0.20;;;1.20;99.90;;;;;;4993995;28;20555;-62
2023/03/11 01:12:54;;;;;;;6.25;0.30;;;1.30;99.90;;;;;;4977876;28;20061;-62
2023/03/11 01:15:30;;;;;;;10.23;0.30;;;1.30;99.90;;;;;;4979110;28;20058;-63
2023/03/11 01:17:56;;;;;;;3.72;0.40;;;1.30;99.90;;;;;;5011566;28;20496;-62
2023/03/11 01:20:22;;;;;;;3.67;0.30;;;1.30;99.90;;;;;;4978472;28;20618;-61
2023/03/11 01:22:48;;;;;;;3.17;0.25;;;1.40;99.90;;;;;;4976961;28;20230;-61
2023/03/11 01:25:17;;;;;;;8.23;0.32;;;1.20;99.90;;;;;;4943606;28;20451;-61
2023/03/11 01:27:43;;;;;;;4.32;0.20;;;1.30;99.90;;;;;;4980178;28;20034;-62
2023/03/11 01:30:13;;;;;;;5.65;0.40;;;1.30;99.90;;;;;;5008297;28;20441;-62
2023/03/11 01:32:39;;;;;;;5.97;0.30;;;1.50;99.90;;;;;;5009462;28;20544;-62
2023/03/11 01:35:05;;;;;;;2.30;0.10;;;1.40;99.90;;;;;;4976316;28;20350;-62
2023/03/11 01:37:31;;;;;;;2.85;0.20;;;1.40;60.90;;;;;;4991705;28;20050;-61
2023/03/11 01:39:56;;;;;;;3.08;0.20;;;1.30;1.00;;;;;;4993542;28;20042;-61
2023/03/11 01:42:22;;;;;;;4.75;0.35;;;1.30;8.30;;;;;;4978775;28;20034;-62
2023/03/11 01:44:48;;;;;;;3.70;0.20;;;1.20;78.90;;;;;;4996424;28;20048;-62
2023/03/11 01:47:14;;;;;;;4.05;0.20;;;1.10;99.90;;;;;;4977722;28;20042;-64
2023/03/11 01:49:40;;;;;;;5.40;0.20;;;1.00;67.80;;;;;;4992484;28;20181;-63
2023/03/11 01:52:07;;;;;;;2.65;0.20;;;1.00;47.60;;;;;;4962189;28;20048;-64
2023/03/11 01:54:38;;;;;;;3.10;0.20;;;1.00;1.00;;;;;;4976337;28;20046;-63
2023/03/11 01:57:11;;;;;;;6.38;0.38;;;1.10;6.60;;;;;;5009078;28;20074;-64
2023/03/11 01:59:42;;;;;;;5.18;0.17;;;1.20;33.60;;;;;;4995772;28;20122;-64
2023/03/11 02:02:22;;;;;;;5.07;0.20;;;1.30;62.40;;;;;;5009663;28;20046;-63
2023/03/11 02:04:49;;;;;;;4.05;0.30;;;1.30;85.30;;;;;;4993547;28;20042;-64
2023/03/11 02:07:15;;;;;;;4.38;0.43;;;1.30;89.80;;;;;;4993370;28;20030;-63
2023/03/11 02:09:41;;;;;;;2.35;0.30;;;1.30;99.90;;;;;;5008008;28;20103;-62
2023/03/11 02:12:10;;;;;;;5.55;0.38;;;1.40;99.90;;;;;;4991196;28;20088;-63
2023/03/11 02:14:40;;;;;;;5.90;0.30;;;1.30;99.90;;;;;;5004299;28;20048;-63
2023/03/11 02:17:07;;;;;;;5.93;0.20;;;1.40;99.90;;;;;;4992098;28;20092;-63
2023/03/11 02:19:51;;;;;;;6.32;0.30;;;1.40;99.90;;;;;;4992269;28;20042;-64
2023/03/11 02:22:17;;;;;;;3.28;0.20;;;1.30;99.90;;;;;;4991571;28;20050;-64
2023/03/11 02:24:52;;;;;;;2.17;0.10;;;1.20;99.90;;;;;;4991088;28;20132;-65
2023/03/11 02:27:20;;;;;;;6.22;0.20;;;1.20;95.20;;;;;;4995076;28;20286;-64
2023/03/11 02:29:48;;;;;;;4.10;0.30;;;1.20;76.20;;;;;;4998572;28;20073;-63
2023/03/11 02:32:14;;;;;;;4.20;0.20;;;1.20;93.00;;;;;;4994187;28;20117;-62
2023/03/11 02:34:40;;;;;;;1.23;0.10;;;1.10;30.20;;;;;;4977503;28;20370;-61
2023/03/11 02:37:09;;;;;;;1.30;0.10;;;1.10;49.20;;;;;;4988868;28;20041;-61
2023/03/11 02:39:40;;;;;;;4.32;0.20;;;1.10;1.00;;;;;;4977233;28;20042;-61
2023/03/11 02:42:22;;;;;;;2.33;0.20;;;1.00;1.00;;;;;;4994983;28;20046;-62
2023/03/11 02:45:10;;;;;;;5.80;0.20;;;1.00;1.00;;;;;;4994538;28;20377;-63
2023/03/11 02:47:38;;;;;;;3.35;0.20;;;1.10;1.00;;;;;;4984344;28;20121;-62
2023/03/11 02:50:06;;;;;;;2.53;0.15;;;1.10;12.90;;;;;;4979969;28;20117;-63
2023/03/11 02:52:34;;;;;;;3.45;0.20;;;1.00;1.00;;;;;;4979767;28;20054;-63
2023/03/11 02:55:00;;;;;;;4.40;0.10;;;0.90;41.90;;;;;;5009237;28;20104;-63
2023/03/11 02:57:26;;;;;;;4.85;0.20;;;0.90;27.70;;;;;;4976019;28;20420;-62
2023/03/11 02:59:52;;;;;;;3.75;0.20;;;0.80;35.10;;;;;;4976439;28;20396;-62
2023/03/11 03:02:17;;;;;;;3.05;0.20;;;0.80;72.20;;;;;;4976418;28;20468;-63
2023/03/11 03:04:43;;;;;;;3.78;0.38;;;0.70;60.80;;;;;;5006852;28;20073;-62
2023/03/11 03:07:09;;;;;;;8.27;0.40;;;0.80;21.80;;;;;;4974744;28;20080;-63
2023/03/11 03:09:35;;;;;;;5.10;0.30;;;0.80;86.90;;;;;;4957920;28;20038;-63
2023/03/11 03:12:03;;;;;;;3.55;0.20;;;0.70;99.90;;;;;;4975175;28;20125;-63
2023/03/11 03:14:29;;;;;;;4.20;0.20;;;0.70;99.90;;;;;;4978162;28;20274;-64
2023/03/11 03:16:54;;;;;;;3.63;0.30;;;0.70;82.60;;;;;;4993361;28;20471;-64
2023/03/11 03:19:20;;;;;;;6.07;0.28;;;0.70;99.90;;;;;;4996173;28;20038;-64
2023/03/11 03:21:46;;;;;;;1.58;0.20;;;0.70;99.90;;;;;;4973123;28;20393;-64
2023/03/11 03:24:12;;;;;;;5.57;0.20;;;0.70;99.90;;;;;;4991405;28;20083;-64
2023/03/11 03:26:38;;;;;;;4.47;0.20;;;0.60;99.90;;;;;;4974153;28;20373;-64
2023/03/11 03:29:04;;;;;;;3.55;0.20;;;0.60;99.90;;;;;;4991892;28;20046;-62
2023/03/11 03:31:31;;;;;;;6.68;0.30;;;0.50;99.90;;;;;;5006927;28;20315;-62
2023/03/11 03:33:57;;;;;;;4.20;0.20;;;0.50;99.90;;;;;;4981870;28;20730;-61
2023/03/11 03:36:23;;;;;;;5.47;0.30;;;0.60;99.90;;;;;;4991647;28;20042;-62
2023/03/11 03:38:53;;;;;;;9.00;0.50;;;0.60;99.90;;;;;;4991798;28;20042;-62
2023/03/11 03:41:18;;;;;;;4.85;0.40;;;0.70;99.90;;;;;;4994191;28;20073;-61
2023/03/11 03:43:44;;;;;;;4.03;0.20;;;0.70;99.90;;;;;;4992761;28;20197;-62
2023/03/11 03:46:10;;;;;;;3.13;0.20;;;0.80;99.90;;;;;;4978997;28;20566;-61
2023/03/11 03:48:35;;;;;;;5.07;0.50;;;0.70;99.90;;;;;;4977779;28;20073;-62
2023/03/11 03:51:04;;;;;;;4.00;0.30;;;0.70;99.90;;;;;;4980438;28;20523;-62
2023/03/11 03:53:30;;;;;;;4.85;0.22;;;0.80;99.90;;;;;;4973049;28;20038;-62
2023/03/11 03:55:57;;;;;;;3.30;0.20;;;0.70;99.90;;;;;;4991057;28;20034;-62
2023/03/11 03:58:22;;;;;;;4.28;0.20;;;0.70;99.90;;;;;;4992235;28;20042;-62
2023/03/11 04:00:48;;;;;;;5.72;0.40;;;0.80;99.90;;;;;;4976591;28;20578;-62
2023/03/11 04:03:14;;;;;;;5.38;0.40;;;0.70;99.90;;;;;;4991787;28;20455;-63
2023/03/11 04:05:39;;;;;;;5.03;0.30;;;0.80;99.90;;;;;;4978717;28;20169;-62
2023/03/11 04:08:05;;;;;;;8.65;0.30;;;0.70;99.90;;;;;;4976589;28;20042;-64
2023/03/11 04:10:31;;;;;;;5.78;0.20;;;0.70;99.90;;;;;;4973084;28;20269;-63
2023/03/11 04:12:56;;;;;;;4.00;0.25;;;0.70;99.90;;;;;;4944580;28;20132;-64
2023/03/11 04:15:22;;;;;;;5.63;0.35;;;0.60;99.90;;;;;;4975057;28;20288;-64
2023/03/11 04:17:48;;;;;;;3.47;0.30;;;0.60;99.90;;;;;;4975054;28;20042;-64
2023/03/11 04:20:13;;;;;;;4.35;0.30;;;0.50;99.90;;;;;;4977747;28;20498;-65
2023/03/11 04:22:42;;;;;;;4.40;0.30;;;0.50;99.90;;;;;;4978252;28;20034;-64
2023/03/11 04:25:08;;;;;;;6.00;0.30;;;0.40;99.90;;;;;;4977868;28;20041;-62
2023/03/11 04:27:34;;;;;;;3.90;0.50;;;0.50;99.90;;;;;;4981648;28;20038;-62
2023/03/11 04:29:59;;;;;;;5.43;0.30;;;0.50;99.90;;;;;;4978067;28;20042;-64
2023/03/11 04:32:25;;;;;;;5.45;0.30;;;0.50;99.90;;;;;;4979437;28;20058;-62
2023/03/11 04:34:51;;;;;;;4.90;0.30;;;0.50;99.90;;;;;;5003593;28;20045;-62
2023/03/11 04:37:16;;;;;;;5.35;0.20;;;0.40;99.90;;;;;;4980855;28;20046;-60
2023/03/11 04:39:42;;;;;;;4.75;0.20;;;0.40;99.90;;;;;;4980104;28;20038;-61
2023/03/11 04:42:08;;;;;;;5.72;0.30;;;0.50;99.90;;;;;;4986243;28;20093;-60
2023/03/11 04:44:34;;;;;;;5.13;0.20;;;0.40;99.90;;;;;;5011294;28;20559;-62
2023/03/11 04:47:00;;;;;;;4.63;0.20;;;0.30;99.90;;;;;;4981036;28;20087;-62
2023/03/11 04:49:26;;;;;;;4.95;0.47;;;0.30;99.90;;;;;;4996240;28;20038;-61
2023/03/11 04:51:51;;;;;;;4.38;0.20;;;0.30;99.90;;;;;;4979187;28;20038;-63
2023/03/11 04:54:17;;;;;;;7.82;0.40;;;0.20;99.90;;;;;;4976991;28;20053;-63
2023/03/11 04:56:43;;;;;;;4.30;0.20;;;0.10;99.90;;;;;;4977724;28;20039;-63
2023/03/11 04:59:08;;;;;;;4.13;0.20;;;0.00;99.90;;;;;;5001263;28;20411;-62
2023/03/11 05:01:34;;;;;;;5.57;0.47;;;0.00;99.90;;;;;;4977918;28;20302;-62
2023/03/11 05:04:00;;;;;;;5.32;0.32;;;-0.10;99.90;;;;;;4977683;28;20062;-63
2023/03/11 05:06:26;;;;;;;5.78;0.30;;;-0.20;99.90;;;;;;4978103;28;20042;-62
2023/03/11 05:08:51;;;;;;;5.50;0.30;;;-0.30;99.90;;;;;;4977022;28;20129;-63
2023/03/11 05:11:17;;;;;;;5.70;0.60;;;-0.40;99.90;;;;;;4979199;28;20148;-63
2023/03/11 05:13:43;;;;;;;6.28;0.30;;;-0.60;99.90;;;;;;4976406;28;20054;-63
2023/03/11 05:16:09;;;;;;;7.50;0.40;;;-0.60;99.90;;;;;;4995784;28;20042;-64
2023/03/11 05:18:35;;;;;;;8.52;0.30;;;-0.70;99.90;;;;;;4995010;28;20039;-63
2023/03/11 05:21:00;;;;;;;5.00;0.38;;;-0.80;99.90;;;;;;4976393;28;20050;-64
2023/03/11 05:23:26;;;;;;;7.88;0.40;;;-0.90;99.90;;;;;;4980756;28;20042;-63
2023/03/11 05:25:52;;;;;;;6.05;0.35;;;-1.00;99.90;;;;;;4991216;28;20124;-62
2023/03/11 05:28:17;;;;;;;4.63;0.50;;;-1.20;99.90;;;;;;4993215;28;20295;-62
2023/03/11 05:30:43;;;;;;;6.35;0.38;;;-1.30;99.90;;;;;;4977369;28;20165;-61
2023/03/11 05:33:09;;;;;;;2.28;0.20;;;-1.40;99.90;;;;;;4979782;28;20062;-63
2023/03/11 05:35:34;;;;;;;3.80;0.30;;;-1.50;99.90;;;;;;4978278;28;20677;-64
2023/03/11 05:38:00;;;;;;;5.18;0.30;;;-1.60;99.90;;;;;;4976953;28;20092;-62
2023/03/11 05:40:26;;;;;;;4.20;0.30;;;-1.80;99.90;;;;;;4975940;28;20108;-63
2023/03/11 05:42:52;;;;;;;3.90;0.30;;;-1.90;99.90;;;;;;5009311;28;20644;-62
2023/03/11 05:45:17;;;;;;;6.43;0.30;;;-2.00;99.90;;;;;;4991669;28;20045;-63
2023/03/11 05:47:43;;;;;;;5.38;0.30;;;-2.10;99.90;;;;;;4993630;28;20043;-62
2023/03/11 05:50:11;;;;;;;4.40;0.30;;;-2.20;99.90;;;;;;4980076;28;20428;-63
2023/03/11 05:52:37;;;;;;;3.97;0.30;;;-2.30;99.90;;;;;;5011564;28;20130;-63
2023/03/11 05:55:03;;;;;;;10.20;0.50;;;-2.20;99.90;;;;;;4978696;28;20062;-63
2023/03/11 05:57:29;;;;;;;7.03;0.40;;;-2.20;99.90;;;;;;4977282;28;20647;-63
2023/03/11 05:59:54;;;;;;;5.32;0.35;;;-2.40;99.90;;;;;;4959750;28;20155;-63
2023/03/11 06:02:23;;;;;;;4.75;0.43;;;-2.50;99.90;;;;;;5008858;28;20046;-62
2023/03/11 06:04:49;;;;;;;5.60;0.30;;;-2.50;99.90;;;;;;4992622;28;20302;-62
2023/03/11 06:07:15;;;;;;;7.20;0.47;;;-2.50;99.90;;;;;;4976839;28;20448;-62
2023/03/11 06:09:40;;;;;;;10.77;0.60;;;-2.50;99.90;;;;;;4980329;28;20084;-62
2023/03/11 06:12:07;;;;;;;4.75;0.35;;;-2.50;99.90;;;;;;4998745;28;20073;-61
2023/03/11 06:14:32;;;;;;;5.60;0.30;;;-2.30;99.90;;;;;;4994684;28;20042;-62
2023/03/11 06:16:58;;;;;;;6.90;0.70;;;-2.40;99.90;;;;;;4976026;28;20167;-62
2023/03/11 06:19:24;;;;;;;4.22;0.60;;;-2.30;99.90;;;;;;4978097;28;20053;-63
2023/03/11 06:21:51;;;;;;;8.02;0.50;;;-2.30;99.90;;;;;;4991075;28;20059;-62
2023/03/11 06:24:17;;;;;;;7.22;0.50;;;-2.20;99.90;;;;;;4976263;28;20069;-61
2023/03/11 06:26:43;;;;;;;5.38;0.50;;;-2.30;99.90;;;;;;4994448;28;20038;-61
2023/03/11 06:29:12;;;;;;;2.75;0.40;;;-2.30;99.90;;;;;;4976584;28;20538;-62
2023/03/11 06:31:38;;;;;;;5.45;0.40;;;-2.40;99.90;;;;;;4978021;28;20562;-61
2023/03/11 06:34:05;;;;;;;3.75;0.50;;;-2.30;99.90;;;;;;4977712;28;20142;-62
2023/03/11 06:36:31;;;;;;;9.93;0.40;;;-2.10;99.90;;;;;;4996497;28;20069;-62
2023/03/11 06:38:57;;;;;;;8.80;0.32;;;-2.10;99.90;;;;;;4991100;28;20096;-62
2023/03/11 06:41:23;;;;;;;3.67;0.68;;;-2.20;99.90;;;;;;4976001;28;20038;-62
2023/03/11 06:43:50;;;;;;;3.78;0.90;;;-2.00;99.90;;;;;;4977926;28;20046;-61
2023/03/11 06:46:18;;;;;;;5.20;0.43;;;-1.90;99.90;;;;;;5007020;28;20125;-61
2023/03/11 06:48:45;;;;;;;5.03;0.35;;;-2.10;99.90;;;;;;4977478;28;20436;-62
2023/03/11 06:51:11;;;;;;;5.70;0.88;;;-1.90;99.90;;;;;;4977302;28;20058;-62
2023/03/11 06:53:37;;;;;;;5.95;0.60;;;-1.80;99.90;;;;;;5008373;28;20049;-62
2023/03/11 06:56:11;;;;;;;3.15;0.30;;;-1.50;1.00;;;;;;5008208;28;20046;-63
2023/03/11 06:58:39;;;;;;;6.30;0.50;;;-1.20;1.00;;;;;;4975522;28;20042;-62
2023/03/11 07:01:17;;;;;;;4.53;0.68;;;-1.10;99.90;;;;;;4992963;28;20047;-62
2023/03/11 07:03:45;;;;;;;7.53;0.40;;;-1.10;99.90;;;;;;4979415;28;20038;-62
2023/03/11 07:06:23;;;;;;;3.22;0.20;;;-1.00;99.90;;;;;;4959032;28;20635;-62
2023/03/11 07:08:51;;;;;;;4.68;0.32;;;-1.00;99.90;;;;;;4979563;28;20031;-61
2023/03/11 07:11:20;;;;;;;4.72;0.38;;;-0.90;99.90;;;;;;4974946;28;20108;-62
2023/03/11 07:13:46;;;;;;;4.47;0.30;;;-0.80;99.90;;;;;;4977580;28;20506;-62
2023/03/11 07:16:14;;;;;;;3.30;0.45;;;-0.80;99.90;;;;;;4976150;28;20309;-61
2023/03/11 07:18:41;;;;;;;5.40;0.45;;;-0.80;99.90;;;;;;4991810;28;20528;-61
2023/03/11 07:21:08;;;;;;;3.67;0.30;;;-0.80;99.90;;;;;;5008534;28;20507;-62
2023/03/11 07:23:35;;;;;;;6.25;0.30;;;-0.70;99.90;;;;;;4994355;28;20358;-61
2023/03/11 07:26:01;;;;;;;4.00;0.30;;;-0.50;99.90;;;;;;4973144;28;20045;-62
2023/03/11 07:28:28;;;;;;;8.32;0.40;;;-0.50;99.90;;;;;;4977882;28;20038;-62
2023/03/11 07:30:55;;;;;;;5.60;0.40;;;-0.50;99.90;;;;;;4978743;28;20503;-62
2023/03/11 07:33:22;;;;;;;3.33;0.30;;;-0.50;99.90;;;;;;4973416;28;20150;-62
2023/03/11 07:35:49;;;;;;;4.78;0.40;;;-0.20;99.90;;;;;;5008673;28;20053;-63
2023/03/11 07:38:16;;;;;;;9.00;0.70;;;-0.10;99.90;;;;;;4989442;28;20053;-64
2023/03/11 07:40:42;;;;;;;5.85;0.43;;;0.00;99.90;;;;;;4977082;28;20500;-63
2023/03/11 07:43:08;;;;;;;4.03;0.50;;;0.20;99.90;;;;;;4973571;28;20049;-64
2023/03/11 07:45:34;;;;;;;2.53;0.40;;;0.30;99.90;;;;;;4974722;28;20572;-63
2023/03/11 07:48:00;;;;;;;2.45;0.43;;;0.50;99.90;;;;;;4990631;28;20416;-63
2023/03/11 07:50:25;;;;;;;4.85;0.68;;;0.70;99.90;;;;;;4988971;28;20110;-63
2023/03/11 07:52:51;;;;;;;3.58;0.40;;;1.00;99.90;;;;;;4986897;28;20042;-62
2023/03/11 07:55:17;;;;;;;6.53;0.40;;;1.60;99.90;;;;;;4993186;28;20566;-63
2023/03/11 07:57:45;;;;;;;7.63;0.50;;;2.40;99.90;;;;;;4972709;28;20078;-64
2023/03/11 08:00:11;;;;;;;6.07;0.60;;;3.10;99.90;;;;;;4976604;28;20046;-63
2023/03/11 08:02:38;;;;;;;3.25;0.40;;;3.70;99.90;;;;;;5015149;28;20070;-63
2023/03/11 08:05:04;;;;;;;4.35;0.35;;;4.30;99.90;;;;;;4979162;28;20705;-63
2023/03/11 08:07:31;;;;;;;4.13;0.43;;;4.60;99.90;;;;;;4961676;28;20250;-62
2023/03/11 08:09:57;;;;;;;4.72;0.40;;;4.70;99.90;;;;;;4992486;28;20438;-63
2023/03/11 08:12:23;;;;;;;7.22;0.47;;;4.90;99.90;;;;;;4980845;28;20053;-62
2023/03/11 08:14:49;;;;;;;4.28;0.40;;;5.00;99.90;;;;;;4978313;28;20081;-63
2023/03/11 08:17:14;;;;;;;4.28;0.30;;;5.30;99.90;;;;;;4993969;28;20695;-63
2023/03/11 08:19:40;;;;;;;5.03;0.52;;;5.60;99.90;;;;;;4983695;28;20149;-63
2023/03/11 08:22:06;;;;;;;2.78;0.40;;;5.60;99.90;;;;;;4979819;28;20046;-63
2023/03/11 08:24:32;;;;;;;5.25;0.30;;;5.60;99.90;;;;;;4979166;28;20050;-63
2023/03/11 08:26:58;;;;;;;2.65;0.30;;;5.60;99.90;;;;;;4982238;28;20045;-63
2023/03/11 08:29:27;;;;;;;6.00;0.35;;;5.70;99.90;;;;;;4983478;28;20045;-62
2023/03/11 08:31:53;;;;;;;3.45;0.30;;;5.90;99.90;;;;;;4995195;28;20038;-63
2023/03/11 08:34:20;;;;;;;2.47;0.30;;;5.90;99.90;;;;;;4995244;28;20110;-63
2023/03/11 08:36:46;;;;;;;7.57;0.35;;;5.60;99.90;;;;;;4978838;28;20046;-64
2023/03/11 08:39:12;;;;;;;3.17;0.30;;;5.70;99.90;;;;;;5008120;28;20050;-63
2023/03/11 08:41:38;;;;;;;4.57;0.40;;;5.70;99.90;;;;;;5009004;28;20044;-65
2023/03/11 08:44:04;;;;;;;6.18;0.40;;;5.80;99.90;;;;;;4993271;28;20081;-65
2023/03/11 08:46:35;;;;;;;4.88;0.52;;;6.00;99.90;;;;;;4978080;28;20799;-64
2023/03/11 08:49:02;;;;;;;6.15;0.40;;;6.10;99.90;;;;;;4992839;28;20132;-63
2023/03/11 08:51:30;;;;;;;4.57;0.47;;;6.20;99.90;;;;;;5009553;28;20597;-65
2023/03/11 08:53:56;;;;;;;3.50;0.30;;;6.40;99.90;;;;;;4993024;28;20038;-64
2023/03/11 08:56:21;;;;;;;6.32;0.40;;;6.50;99.90;;;;;;5008926;28;20041;-64
2023/03/11 08:58:48;;;;;;;4.25;0.40;;;6.60;99.90;;;;;;4992838;28;20054;-65
2023/03/11 09:01:13;;;;;;;8.02;0.50;;;6.70;99.90;;;;;;4993201;28;20471;-65
2023/03/11 09:03:39;;;;;;;5.00;0.40;;;6.70;99.90;;;;;;5010079;28;20046;-66
2023/03/11 09:06:14;;;;;;;4.88;0.50;;;6.70;99.90;;;;;;5008903;28;20037;-65
2023/03/11 09:08:40;;;;;;;5.85;0.50;;;6.60;99.90;;;;;;4992543;28;20111;-65
2023/03/11 09:11:06;;;;;;;5.30;0.40;;;6.40;99.90;;;;;;4975971;28;20409;-66
2023/03/11 09:13:32;;;;;;;3.22;0.28;;;6.50;99.90;;;;;;4994308;28;20050;-65
2023/03/11 09:15:58;;;;;;;5.90;0.30;;;6.90;99.90;;;;;;4993122;28;20411;-63
2023/03/11 09:18:24;;;;;;;7.40;0.50;;;7.20;99.90;;;;;;4993937;28;20037;-62
2023/03/11 09:20:50;;;;;;;4.10;0.40;;;7.50;99.90;;;;;;4996489;28;20049;-62
2023/03/11 09:23:17;;;;;;;4.10;0.40;;;7.30;99.90;;;;;;4995869;28;20253;-62
2023/03/11 09:25:43;;;;;;;4.70;0.35;;;7.50;99.90;;;;;;4995568;28;20153;-62
2023/03/11 09:28:09;;;;;;;5.78;0.30;;;7.60;99.90;;;;;;4994055;28;20241;-62
2023/03/11 09:30:35;;;;;;;4.78;0.30;;;7.50;99.90;;;;;;4995408;28;20042;-62
2023/03/11 09:33:00;;;;;;;4.40;0.40;;;7.60;99.90;;;;;;5011636;28;20061;-62
2023/03/11 09:35:26;;;;;;;4.28;0.30;;;7.30;99.90;;;;;;5012191;28;21017;-62
2023/03/11 09:37:52;;;;;;;4.95;0.40;;;7.10;99.90;;;;;;5011716;28;20050;-62
2023/03/11 09:40:20;;;;;;;6.00;0.30;;;7.20;99.90;;;;;;4994122;28;20365;-65
2023/03/11 09:42:58;;;;;;;4.03;0.30;;;7.30;99.90;;;;;;4976044;28;20492;-65
2023/03/11 09:45:30;;;;;;;4.88;0.60;;;7.30;99.90;;;;;;4992317;28;20679;-65
2023/03/11 09:48:18;;;;;;;2.87;0.40;;;7.00;99.90;;;;;;5007410;28;20044;-65
2023/03/11 09:50:57;;;;;;;5.57;0.40;;;7.40;99.90;;;;;;4993302;28;20825;-65
2023/03/11 09:53:36;;;;;;;5.72;0.70;;;7.80;99.90;;;;;;4975706;28;20410;-62
2023/03/11 09:56:06;;;;;;;5.95;0.50;;;7.90;99.90;;;;;;4996061;28;20046;-62
2023/03/11 09:58:35;;;;;;;5.18;0.55;;;8.10;99.90;;;;;;4997830;28;20046;-64
2023/03/11 10:01:03;;;;;;;6.03;0.70;;;8.40;99.90;;;;;;5012586;28;20049;-63
2023/03/11 10:03:33;;;;;;;3.60;0.50;;;8.80;99.90;;;;;;4994969;28;20046;-62
2023/03/11 10:06:11;;;;;;;4.40;0.40;;;8.90;99.90;;;;;;4996066;28;20041;-63
2023/03/11 10:08:46;;;;;;;4.80;0.30;;;8.80;99.90;;;;;;5010845;28;20096;-63
2023/03/11 10:11:21;;;;;;;6.72;0.40;;;8.40;99.90;;;;;;4994443;28;20059;-63
2023/03/11 10:14:15;;;;;;;4.88;0.60;;;8.10;99.90;;;;;;4993504;28;20049;-63
2023/03/11 10:17:14;;;;;;;3.95;0.40;;;8.00;94.40;;;;;;4992791;28;20046;-64
2023/03/11 10:19:57;;;;;;;4.88;0.35;;;8.40;99.90;;;;;;5007883;28;20589;-65
2023/03/11 10:22:31;;;;;;;4.78;0.63;;;8.70;99.90;;;;;;4993145;28;20050;-65
2023/03/11 10:25:04;;;;;;;6.72;0.43;;;8.70;91.30;;;;;;4991552;28;20046;-64
2023/03/11 10:27:45;;;;;;;3.67;0.30;;;8.20;99.90;;;;;;5008353;28;20812;-64
2023/03/11 10:30:32;;;;;;;4.30;0.65;;;8.40;99.90;;;;;;4993397;28;20038;-63
2023/03/11 10:33:10;;;;;;;3.13;0.38;;;8.10;1.00;;;;;;5007789;28;20328;-63
2023/03/11 10:35:39;;;;;;;2.95;0.40;;;8.00;59.00;;;;;;5008295;28;20061;-64
2023/03/11 10:38:20;;;;;;;3.78;0.38;;;8.00;99.90;;;;;;4991615;28;20372;-64
2023/03/11 10:40:49;;;;;;;4.32;0.50;;;8.00;45.50;;;;;;4975083;28;20129;-64
2023/03/11 10:43:46;;;;;;;3.95;0.63;;;8.40;99.90;;;;;;4991688;28;20077;-64
2023/03/11 10:46:27;;;;;;;2.63;0.35;;;8.90;1.00;;;;;;4988077;28;20054;-65
2023/03/11 10:48:53;;;;;;;4.72;0.40;;;8.90;64.70;;;;;;4990888;28;20042;-63
2023/03/11 10:51:22;;;;;;;3.80;0.40;;;9.00;97.90;;;;;;4990170;28;20046;-63
2023/03/11 10:53:55;;;;;;;3.92;0.40;;;9.10;45.20;;;;;;4974230;28;20042;-64
2023/03/11 10:56:35;;;;;;;5.13;0.30;;;9.00;1.00;;;;;;4991000;28;20052;-64
2023/03/11 10:59:02;;;;;;;3.97;0.20;;;8.80;1.00;;;;;;4990784;28;20766;-65
2023/03/11 11:01:29;;;;;;;3.45;0.30;;;9.10;3.40;;;;;;4992608;28;20619;-64
2023/03/11 11:03:58;;;;;;;3.97;0.22;;;9.30;1.00;;;;;;5007616;28;20345;-64
2023/03/11 11:06:25;;;;;;;2.17;0.35;;;9.20;1.00;;;;;;4975038;28;20049;-65
2023/03/11 11:09:06;;;;;;;4.80;0.30;;;9.00;1.00;;;;;;4990663;28;20508;-64
2023/03/11 11:11:34;;;;;;;2.13;0.30;;;8.90;99.90;;;;;;4992501;28;20050;-64
2023/03/11 11:14:00;;;;;;;4.38;0.32;;;8.90;1.00;;;;;;5007423;28;20068;-64
2023/03/11 11:16:27;;;;;;;4.03;0.30;;;8.50;1.00;;;;;;4991478;28;20762;-65
2023/03/11 11:19:02;;;;;;;2.92;0.38;;;8.70;1.00;;;;;;4990710;28;20052;-64
2023/03/11 11:21:48;;;;;;;4.72;0.55;;;8.50;99.90;;;;;;4991196;28;20538;-65
2023/03/11 11:24:19;;;;;;;6.45;0.38;;;8.50;99.90;;;;;;4990842;28;20149;-64
2023/03/11 11:27:11;;;;;;;4.43;0.20;;;8.80;99.90;;;;;;4990412;28;20069;-64
2023/03/11 11:29:37;;;;;;;3.90;0.30;;;9.10;99.90;;;;;;4995718;28;20085;-64
2023/03/11 11:32:20;;;;;;;5.10;0.40;;;9.60;99.90;;;;;;4995078;28;20104;-64
2023/03/11 11:34:59;;;;;;;4.30;0.43;;;9.80;99.90;;;;;;5011288;28;20061;-64
2023/03/11 11:37:30;;;;;;;3.08;0.20;;;9.90;99.90;;;;;;4994368;28;20623;-64
2023/03/11 11:40:14;;;;;;;3.60;0.20;;;9.80;99.90;;;;;;4996148;28;20496;-65
2023/03/11 11:42:55;;;;;;;2.38;0.20;;;9.80;99.90;;;;;;4980933;28;20538;-62
2023/03/11 11:45:35;;;;;;;2.00;0.30;;;9.70;99.90;;;;;;4984438;28;20723;-63
2023/03/11 11:48:38;;;;;;;4.22;0.38;;;9.60;99.90;;;;;;4996894;28;20049;-63
2023/03/11 11:51:17;;;;;;;4.07;0.20;;;9.60;99.90;;;;;;4982296;28;20054;-63
2023/03/11 11:53:51;;;;;;;2.97;0.50;;;9.50;99.90;;;;;;4994797;28;20200;-64
2023/03/11 11:56:17;;;;;;;4.82;0.30;;;9.50;99.90;;;;;;4978792;28;20042;-64
2023/03/11 11:58:43;;;;;;;5.20;0.30;;;9.70;99.90;;;;;;4975724;28;20141;-64
2023/03/11 12:01:12;;;;;;;3.35;0.20;;;9.50;99.90;;;;;;4991824;28;20054;-64
2023/03/11 12:03:49;;;;;;;3.10;0.20;;;9.20;99.90;;;;;;5010632;28;20050;-64
2023/03/11 12:06:21;;;;;;;3.22;0.15;;;8.90;99.90;;;;;;4991382;28;20275;-64
2023/03/11 12:09:22;;;;;;;4.25;0.40;;;8.80;99.90;;;;;;4993896;28;20417;-63
2023/03/11 12:11:53;;;;;;;0.75;0.10;;;8.70;99.90;;;;;;4993969;28;20049;-63
2023/03/11 12:14:58;;;;;;;4.93;0.35;;;9.10;99.90;;;;;;4993033;28;20116;-63
2023/03/11 12:17:26;;;;;;;5.00;0.45;;;9.20;99.90;;;;;;4970037;28;20496;-64
2023/03/11 12:20:38;;;;;;;5.22;0.25;;;9.50;99.90;;;;;;4994860;28;20066;-64
2023/03/11 12:23:16;;;;;;;4.00;0.20;;;9.90;99.90;;;;;;4987763;28;20045;-64
2023/03/11 12:26:08;;;;;;;3.72;0.20;;;9.20;99.90;;;;;;5009770;28;20139;-65
2023/03/11 12:28:56;;;;;;;4.88;0.30;;;9.40;99.90;;;;;;4974871;28;20128;-63
2023/03/11 12:31:25;;;;;;;2.97;0.30;;;9.10;99.90;;;;;;5024133;28;20269;-63
2023/03/11 12:33:55;;;;;;;2.80;0.20;;;8.60;99.90;;;;;;4975945;28;20064;-62
2023/03/11 12:36:36;;;;;;;3.42;0.30;;;8.10;99.90;;;;;;4997271;28;20054;-63
2023/03/11 12:39:04;;;;;;;5.47;0.30;;;7.90;99.90;;;;;;4981385;28;20069;-62
2023/03/11 12:41:38;;;;;;;3.53;0.25;;;7.90;99.90;;;;;;4973356;28;20517;-64
2023/03/11 12:44:27;;;;;;;2.95;0.38;;;7.90;99.90;;;;;;5010431;28;20056;-63
2023/03/11 12:46:53;;;;;;;3.72;0.38;;;7.50;99.90;;;;;;4978204;28;20926;-63
2023/03/11 12:49:31;;;;;;;6.07;0.30;;;7.00;99.90;;;;;;4993970;28;20151;-63
2023/03/11 12:52:12;;;;;;;3.38;0.25;;;6.90;1.00;;;;;;5007202;28;20077;-63
2023/03/11 12:54:40;;;;;;;3.80;0.30;;;7.10;1.00;;;;;;4994539;28;20253;-63
2023/03/11 12:57:18;;;;;;;4.28;0.25;;;7.20;1.00;;;;;;4993534;28;20042;-63
2023/03/11 13:00:08;;;;;;;3.63;0.22;;;7.20;1.00;;;;;;4993916;28;20089;-63
2023/03/11 13:03:03;;;;;;;3.08;0.50;;;7.10;1.00;;;;;;4978036;28;20330;-63
2023/03/11 13:05:44;;;;;;;3.08;0.22;;;7.00;1.00;;;;;;4993187;28;20451;-64
2023/03/11 13:08:36;;;;;;;4.75;0.20;;;6.80;1.00;;;;;;4976882;28;20533;-64